Hauptseite
METAR-TAF:

METAR-TAF

Flughäfen :

Linz, Österreich

Flughafen Linz

Breite: 48-14N, Länge: 014-11E, Höhe: 298 m

Beobachtung

Neuester Wetterbericht von vor 31 Minuten, um 13:20 UTC
Wind 6 kt aus Ost, variierte zwischen Nord/Nordost und Süd/Südost
Temperatur 0°C
Luftfeuchtigkeit 51%
Luftdruck 1020 hPa
Sichtweite 10 km oder mehr
keine Wolken unter 1500 m und keine Kumulonimbus oder Gewitterwolken

METAR: LOWL 241320Z 09006KT 030V150 CAVOK M00/M09 Q1020 NOSIG

Zeit: 14:51 (13:51 UTC)

Prognose

Neuester Wetterbericht von vor 2 Stunden und 36 Minuten, um 11:15 UTC
Gültige Prognose vom 24 um 12 UTC bis 25 um 12 UTC
Wind 10 kt aus Ost/Nordost
Sichtweite 10 km oder mehr
Leicht bewölkt in der Höhe von 5000 ft
Zeitweise
vom 24 um 12 UTC bis 24 um 18 UTC
Wind 15 kt aus Ost

TAF: LOWL 241115Z 2412/2512 07010KT 9999 FEW050 TXM00/2414Z TNM09/2506Z TEMPO 2412/2418 09015KT

Wetterbeobachtungen und Prognosen von mehr als 4000 Flughäfen (METAR und TAF Bericht).

Die verfügbaren Stationen werden durch gelbe und rote Markierungen auf der Karte dargestellt.

Führen Sie die Maus auf sie, um den Namen der Station zu sehen.

Darauf klicken, um die Beobachtung von Wetterbeobachtungen und Prognosen zu sehen.

Um die Karte zu ändern : klicken Sie auf den grünen Tasten mit einem schwarzen Kreuz Zum Vergrößern, auf den grünen Button mit einem Gedankenstrich zu verkleinern, oder auf die grünen Pfeile für benachbarte Karten.


METAR-TAF: